sensor_id;sensor_type;location;lat;lon;timestamp;P1;durP1;ratioP1;P2;durP2;ratioP2
21833;SDS011;11079;51.092;3.458;2024-02-14T00:01:54;6.80;;;4.53;;
21833;SDS011;11079;51.092;3.458;2024-02-14T00:04:24;6.25;;;4.90;;
21833;SDS011;11079;51.092;3.458;2024-02-14T00:06:59;6.93;;;5.10;;
21833;SDS011;11079;51.092;3.458;2024-02-14T00:09:37;9.55;;;4.93;;
21833;SDS011;11079;51.092;3.458;2024-02-14T00:12:34;7.18;;;4.78;;
21833;SDS011;11079;51.092;3.458;2024-02-14T00:18:10;6.88;;;4.47;;
21833;SDS011;11079;51.092;3.458;2024-02-14T00:21:01;6.95;;;4.10;;
21833;SDS011;11079;51.092;3.458;2024-02-14T00:23:37;7.88;;;4.65;;
21833;SDS011;11079;51.092;3.458;2024-02-14T00:26:21;8.77;;;5.38;;
21833;SDS011;11079;51.092;3.458;2024-02-14T00:29:28;6.00;;;4.80;;
21833;SDS011;11079;51.092;3.458;2024-02-14T00:32:04;7.18;;;5.05;;
21833;SDS011;11079;51.092;3.458;2024-02-14T00:35:24;8.82;;;4.85;;
21833;SDS011;11079;51.092;3.458;2024-02-14T00:38:30;7.22;;;5.07;;
21833;SDS011;11079;51.092;3.458;2024-02-14T00:44:20;8.70;;;5.43;;
21833;SDS011;11079;51.092;3.458;2024-02-14T00:46:49;6.25;;;4.97;;
21833;SDS011;11079;51.092;3.458;2024-02-14T01:07:25;7.25;;;5.30;;
21833;SDS011;11079;51.092;3.458;2024-02-14T01:11:02;7.60;;;5.05;;
21833;SDS011;11079;51.092;3.458;2024-02-14T01:14:07;6.28;;;4.63;;
21833;SDS011;11079;51.092;3.458;2024-02-14T01:25:55;7.20;;;5.43;;
21833;SDS011;11079;51.092;3.458;2024-02-14T01:45:53;8.63;;;5.60;;
21833;SDS011;11079;51.092;3.458;2024-02-14T01:48:27;8.35;;;5.18;;
21833;SDS011;11079;51.092;3.458;2024-02-14T01:51:10;7.25;;;6.10;;
21833;SDS011;11079;51.092;3.458;2024-02-14T01:53:38;6.25;;;5.32;;
21833;SDS011;11079;51.092;3.458;2024-02-14T01:56:15;8.02;;;5.55;;
21833;SDS011;11079;51.092;3.458;2024-02-14T02:02:12;8.73;;;4.93;;
21833;SDS011;11079;51.092;3.458;2024-02-14T02:04:41;9.45;;;5.80;;
21833;SDS011;11079;51.092;3.458;2024-02-14T02:07:07;10.00;;;4.90;;
21833;SDS011;11079;51.092;3.458;2024-02-14T02:09:36;7.05;;;5.00;;
21833;SDS011;11079;51.092;3.458;2024-02-14T02:12:01;8.30;;;5.43;;
21833;SDS011;11079;51.092;3.458;2024-02-14T02:14:33;7.25;;;5.30;;
21833;SDS011;11079;51.092;3.458;2024-02-14T02:17:20;10.30;;;5.43;;
21833;SDS011;11079;51.092;3.458;2024-02-14T02:19:46;7.65;;;4.78;;
21833;SDS011;11079;51.092;3.458;2024-02-14T02:22:16;5.85;;;5.10;;
21833;SDS011;11079;51.092;3.458;2024-02-14T02:28:31;8.65;;;4.95;;
21833;SDS011;11079;51.092;3.458;2024-02-14T02:31:02;7.32;;;4.97;;
21833;SDS011;11079;51.092;3.458;2024-02-14T02:34:08;9.02;;;5.45;;
21833;SDS011;11079;51.092;3.458;2024-02-14T02:36:48;8.32;;;5.38;;
21833;SDS011;11079;51.092;3.458;2024-02-14T02:39:41;8.38;;;5.35;;
21833;SDS011;11079;51.092;3.458;2024-02-14T02:42:32;7.72;;;4.90;;
21833;SDS011;11079;51.092;3.458;2024-02-14T02:48:27;6.70;;;5.50;;
21833;SDS011;11079;51.092;3.458;2024-02-14T03:00:23;7.45;;;5.50;;
21833;SDS011;11079;51.092;3.458;2024-02-14T03:03:27;8.05;;;5.50;;
21833;SDS011;11079;51.092;3.458;2024-02-14T03:06:06;10.32;;;5.53;;
21833;SDS011;11079;51.092;3.458;2024-02-14T03:08:49;8.25;;;5.28;;
21833;SDS011;11079;51.092;3.458;2024-02-14T03:12:09;6.47;;;4.50;;
21833;SDS011;11079;51.092;3.458;2024-02-14T03:17:59;10.07;;;5.55;;
21833;SDS011;11079;51.092;3.458;2024-02-14T03:20:28;7.70;;;5.60;;
21833;SDS011;11079;51.092;3.458;2024-02-14T03:22:55;12.43;;;6.32;;
21833;SDS011;11079;51.092;3.458;2024-02-14T03:25:21;8.65;;;6.07;;
21833;SDS011;11079;51.092;3.458;2024-02-14T03:27:52;6.50;;;5.72;;
21833;SDS011;11079;51.092;3.458;2024-02-14T03:30:31;8.02;;;5.78;;
21833;SDS011;11079;51.092;3.458;2024-02-14T03:33:03;8.80;;;6.47;;
21833;SDS011;11079;51.092;3.458;2024-02-14T03:35:51;8.57;;;6.00;;
21833;SDS011;11079;51.092;3.458;2024-02-14T03:39:08;9.60;;;6.53;;
21833;SDS011;11079;51.092;3.458;2024-02-14T03:42:00;9.38;;;6.45;;
21833;SDS011;11079;51.092;3.458;2024-02-14T03:44:41;10.20;;;6.63;;
21833;SDS011;11079;51.092;3.458;2024-02-14T03:47:20;10.80;;;6.28;;
21833;SDS011;11079;51.092;3.458;2024-02-14T03:52:39;8.70;;;6.93;;
21833;SDS011;11079;51.092;3.458;2024-02-14T03:55:09;9.30;;;6.10;;
21833;SDS011;11079;51.092;3.458;2024-02-14T03:58:24;9.20;;;6.05;;
21833;SDS011;11079;51.092;3.458;2024-02-14T04:00:50;11.15;;;6.82;;
21833;SDS011;11079;51.092;3.458;2024-02-14T04:03:37;9.15;;;6.15;;
21833;SDS011;11079;51.092;3.458;2024-02-14T04:06:08;10.75;;;6.68;;
21833;SDS011;11079;51.092;3.458;2024-02-14T04:08:43;8.05;;;6.25;;
21833;SDS011;11079;51.092;3.458;2024-02-14T04:11:15;8.80;;;6.28;;
21833;SDS011;11079;51.092;3.458;2024-02-14T04:13:43;10.07;;;6.95;;
21833;SDS011;11079;51.092;3.458;2024-02-14T04:16:18;13.50;;;6.88;;
21833;SDS011;11079;51.092;3.458;2024-02-14T04:18:47;12.35;;;6.68;;
21833;SDS011;11079;51.092;3.458;2024-02-14T04:21:12;9.07;;;6.28;;
21833;SDS011;11079;51.092;3.458;2024-02-14T04:23:42;11.30;;;6.82;;
21833;SDS011;11079;51.092;3.458;2024-02-14T04:26:20;13.02;;;6.95;;
21833;SDS011;11079;51.092;3.458;2024-02-14T04:28:53;9.80;;;6.40;;
21833;SDS011;11079;51.092;3.458;2024-02-14T04:31:32;12.23;;;7.70;;
21833;SDS011;11079;51.092;3.458;2024-02-14T04:34:00;12.43;;;7.07;;
21833;SDS011;11079;51.092;3.458;2024-02-14T04:36:26;13.40;;;7.32;;
21833;SDS011;11079;51.092;3.458;2024-02-14T04:38:55;8.73;;;6.63;;
21833;SDS011;11079;51.092;3.458;2024-02-14T04:41:26;13.10;;;7.72;;
21833;SDS011;11079;51.092;3.458;2024-02-14T04:44:04;15.73;;;6.85;;
21833;SDS011;11079;51.092;3.458;2024-02-14T04:46:40;11.85;;;6.57;;
21833;SDS011;11079;51.092;3.458;2024-02-14T04:49:14;11.50;;;6.68;;
21833;SDS011;11079;51.092;3.458;2024-02-14T04:51:40;11.57;;;6.75;;
21833;SDS011;11079;51.092;3.458;2024-02-14T04:54:38;15.27;;;7.60;;
21833;SDS011;11079;51.092;3.458;2024-02-14T04:57:14;11.50;;;6.93;;
21833;SDS011;11079;51.092;3.458;2024-02-14T04:59:46;9.93;;;6.13;;
21833;SDS011;11079;51.092;3.458;2024-02-14T05:02:13;10.85;;;7.03;;
21833;SDS011;11079;51.092;3.458;2024-02-14T05:04:40;12.77;;;6.78;;
21833;SDS011;11079;51.092;3.458;2024-02-14T05:07:57;11.80;;;6.72;;
21833;SDS011;11079;51.092;3.458;2024-02-14T05:10:33;9.77;;;6.40;;
21833;SDS011;11079;51.092;3.458;2024-02-14T05:13:04;10.90;;;6.88;;
21833;SDS011;11079;51.092;3.458;2024-02-14T05:15:35;10.80;;;6.35;;
21833;SDS011;11079;51.092;3.458;2024-02-14T05:18:09;11.10;;;6.55;;
21833;SDS011;11079;51.092;3.458;2024-02-14T05:20:36;9.63;;;6.45;;
21833;SDS011;11079;51.092;3.458;2024-02-14T05:23:04;10.02;;;6.97;;
21833;SDS011;11079;51.092;3.458;2024-02-14T05:25:30;16.27;;;8.43;;
21833;SDS011;11079;51.092;3.458;2024-02-14T05:28:03;13.23;;;8.05;;
21833;SDS011;11079;51.092;3.458;2024-02-14T05:30:29;14.65;;;8.25;;
21833;SDS011;11079;51.092;3.458;2024-02-14T05:32:56;12.57;;;7.30;;
21833;SDS011;11079;51.092;3.458;2024-02-14T05:35:22;12.88;;;7.40;;
21833;SDS011;11079;51.092;3.458;2024-02-14T05:37:48;13.00;;;7.10;;
21833;SDS011;11079;51.092;3.458;2024-02-14T05:40:16;10.10;;;7.43;;
21833;SDS011;11079;51.092;3.458;2024-02-14T05:42:54;11.23;;;7.00;;
21833;SDS011;11079;51.092;3.458;2024-02-14T05:45:21;8.65;;;7.03;;
21833;SDS011;11079;51.092;3.458;2024-02-14T05:47:57;12.05;;;7.65;;
21833;SDS011;11079;51.092;3.458;2024-02-14T05:50:31;11.88;;;7.15;;
21833;SDS011;11079;51.092;3.458;2024-02-14T05:53:01;12.50;;;7.05;;
21833;SDS011;11079;51.092;3.458;2024-02-14T05:55:27;8.57;;;6.35;;
21833;SDS011;11079;51.092;3.458;2024-02-14T05:57:53;9.43;;;6.53;;
21833;SDS011;11079;51.092;3.458;2024-02-14T06:00:31;10.25;;;5.75;;
21833;SDS011;11079;51.092;3.458;2024-02-14T06:03:11;11.25;;;5.78;;
21833;SDS011;11079;51.092;3.458;2024-02-14T06:05:37;8.48;;;5.13;;
21833;SDS011;11079;51.092;3.458;2024-02-14T06:08:12;11.52;;;6.13;;
21833;SDS011;11079;51.092;3.458;2024-02-14T06:10:44;10.32;;;5.88;;
21833;SDS011;11079;51.092;3.458;2024-02-14T06:13:12;10.90;;;5.78;;
21833;SDS011;11079;51.092;3.458;2024-02-14T06:15:42;10.48;;;5.75;;
21833;SDS011;11079;51.092;3.458;2024-02-14T06:18:24;15.55;;;5.57;;
21833;SDS011;11079;51.092;3.458;2024-02-14T06:20:52;7.85;;;5.45;;
21833;SDS011;11079;51.092;3.458;2024-02-14T06:23:18;11.85;;;5.88;;
21833;SDS011;11079;51.092;3.458;2024-02-14T06:25:47;10.68;;;5.85;;
21833;SDS011;11079;51.092;3.458;2024-02-14T06:28:13;7.28;;;5.63;;
21833;SDS011;11079;51.092;3.458;2024-02-14T06:30:48;8.35;;;5.45;;
21833;SDS011;11079;51.092;3.458;2024-02-14T06:33:17;9.25;;;5.35;;
21833;SDS011;11079;51.092;3.458;2024-02-14T06:35:45;13.25;;;6.00;;
21833;SDS011;11079;51.092;3.458;2024-02-14T06:38:11;8.75;;;6.00;;
21833;SDS011;11079;51.092;3.458;2024-02-14T06:40:44;11.02;;;5.68;;
21833;SDS011;11079;51.092;3.458;2024-02-14T06:43:20;9.05;;;5.70;;
21833;SDS011;11079;51.092;3.458;2024-02-14T06:45:48;6.05;;;4.88;;
21833;SDS011;11079;51.092;3.458;2024-02-14T06:48:20;11.05;;;5.82;;
21833;SDS011;11079;51.092;3.458;2024-02-14T06:50:51;10.55;;;6.32;;
21833;SDS011;11079;51.092;3.458;2024-02-14T06:53:17;10.98;;;6.30;;
21833;SDS011;11079;51.092;3.458;2024-02-14T06:55:43;16.55;;;6.53;;
21833;SDS011;11079;51.092;3.458;2024-02-14T06:58:10;11.90;;;6.22;;
21833;SDS011;11079;51.092;3.458;2024-02-14T07:00:58;11.18;;;6.43;;
21833;SDS011;11079;51.092;3.458;2024-02-14T07:03:24;9.48;;;6.40;;
21833;SDS011;11079;51.092;3.458;2024-02-14T07:05:50;13.93;;;7.13;;
21833;SDS011;11079;51.092;3.458;2024-02-14T07:08:16;11.93;;;7.53;;
21833;SDS011;11079;51.092;3.458;2024-02-14T07:13:20;10.90;;;6.93;;
21833;SDS011;11079;51.092;3.458;2024-02-14T07:15:45;13.52;;;7.60;;
21833;SDS011;11079;51.092;3.458;2024-02-14T07:18:11;15.68;;;8.00;;
21833;SDS011;11079;51.092;3.458;2024-02-14T07:20:37;13.43;;;6.95;;
21833;SDS011;11079;51.092;3.458;2024-02-14T07:23:03;15.27;;;7.10;;
21833;SDS011;11079;51.092;3.458;2024-02-14T07:25:30;21.40;;;8.18;;
21833;SDS011;11079;51.092;3.458;2024-02-14T07:27:56;13.18;;;7.93;;
21833;SDS011;11079;51.092;3.458;2024-02-14T07:30:21;11.75;;;7.00;;
21833;SDS011;11079;51.092;3.458;2024-02-14T07:32:47;10.68;;;6.90;;
21833;SDS011;11079;51.092;3.458;2024-02-14T07:35:13;15.77;;;7.65;;
21833;SDS011;11079;51.092;3.458;2024-02-14T07:37:39;13.38;;;8.15;;
21833;SDS011;11079;51.092;3.458;2024-02-14T07:40:12;15.55;;;8.52;;
21833;SDS011;11079;51.092;3.458;2024-02-14T07:42:38;12.75;;;7.55;;
21833;SDS011;11079;51.092;3.458;2024-02-14T07:45:10;11.98;;;8.05;;
21833;SDS011;11079;51.092;3.458;2024-02-14T07:47:36;17.60;;;7.90;;
21833;SDS011;11079;51.092;3.458;2024-02-14T07:50:08;12.77;;;8.10;;
21833;SDS011;11079;51.092;3.458;2024-02-14T07:52:34;13.27;;;7.90;;
21833;SDS011;11079;51.092;3.458;2024-02-14T07:55:01;11.32;;;8.25;;
21833;SDS011;11079;51.092;3.458;2024-02-14T07:57:27;16.58;;;7.60;;
21833;SDS011;11079;51.092;3.458;2024-02-14T07:59:53;17.17;;;9.57;;
21833;SDS011;11079;51.092;3.458;2024-02-14T08:02:19;13.32;;;7.72;;
21833;SDS011;11079;51.092;3.458;2024-02-14T08:04:45;17.33;;;8.73;;
21833;SDS011;11079;51.092;3.458;2024-02-14T08:07:10;16.27;;;9.10;;
21833;SDS011;11079;51.092;3.458;2024-02-14T08:09:36;14.27;;;8.68;;
21833;SDS011;11079;51.092;3.458;2024-02-14T08:12:09;15.68;;;8.90;;
21833;SDS011;11079;51.092;3.458;2024-02-14T08:14:35;14.68;;;8.90;;
21833;SDS011;11079;51.092;3.458;2024-02-14T08:17:01;17.05;;;8.95;;
21833;SDS011;11079;51.092;3.458;2024-02-14T08:19:27;17.15;;;9.63;;
21833;SDS011;11079;51.092;3.458;2024-02-14T08:21:53;18.17;;;8.52;;
21833;SDS011;11079;51.092;3.458;2024-02-14T08:24:23;17.55;;;9.68;;
21833;SDS011;11079;51.092;3.458;2024-02-14T08:26:52;17.92;;;8.38;;
21833;SDS011;11079;51.092;3.458;2024-02-14T08:29:21;15.63;;;7.85;;
21833;SDS011;11079;51.092;3.458;2024-02-14T08:31:47;18.92;;;10.23;;
21833;SDS011;11079;51.092;3.458;2024-02-14T08:34:13;16.67;;;9.20;;
21833;SDS011;11079;51.092;3.458;2024-02-14T08:36:39;15.77;;;8.23;;
21833;SDS011;11079;51.092;3.458;2024-02-14T08:39:06;18.98;;;9.35;;
21833;SDS011;11079;51.092;3.458;2024-02-14T08:41:32;16.70;;;9.10;;
21833;SDS011;11079;51.092;3.458;2024-02-14T08:43:58;16.88;;;8.65;;
21833;SDS011;11079;51.092;3.458;2024-02-14T08:46:24;14.43;;;8.65;;
21833;SDS011;11079;51.092;3.458;2024-02-14T08:48:50;16.52;;;8.57;;
21833;SDS011;11079;51.092;3.458;2024-02-14T08:51:19;13.80;;;8.55;;
21833;SDS011;11079;51.092;3.458;2024-02-14T08:53:47;15.93;;;8.60;;
21833;SDS011;11079;51.092;3.458;2024-02-14T08:56:19;13.45;;;8.70;;
21833;SDS011;11079;51.092;3.458;2024-02-14T08:58:49;13.27;;;7.82;;
21833;SDS011;11079;51.092;3.458;2024-02-14T09:01:18;15.00;;;8.02;;
21833;SDS011;11079;51.092;3.458;2024-02-14T09:03:46;14.60;;;7.80;;
21833;SDS011;11079;51.092;3.458;2024-02-14T09:06:15;12.20;;;7.45;;
21833;SDS011;11079;51.092;3.458;2024-02-14T09:08:43;14.77;;;8.23;;
21833;SDS011;11079;51.092;3.458;2024-02-14T09:11:09;14.60;;;7.65;;
21833;SDS011;11079;51.092;3.458;2024-02-14T09:13:34;11.32;;;7.57;;
21833;SDS011;11079;51.092;3.458;2024-02-14T09:16:00;14.57;;;7.60;;
21833;SDS011;11079;51.092;3.458;2024-02-14T09:18:42;12.52;;;7.30;;
21833;SDS011;11079;51.092;3.458;2024-02-14T09:21:09;12.65;;;6.82;;
21833;SDS011;11079;51.092;3.458;2024-02-14T09:23:35;11.05;;;7.45;;
21833;SDS011;11079;51.092;3.458;2024-02-14T09:26:04;10.27;;;6.90;;
21833;SDS011;11079;51.092;3.458;2024-02-14T09:28:29;11.13;;;8.00;;
21833;SDS011;11079;51.092;3.458;2024-02-14T09:30:55;11.82;;;8.02;;
21833;SDS011;11079;51.092;3.458;2024-02-14T09:33:20;11.43;;;7.95;;
21833;SDS011;11079;51.092;3.458;2024-02-14T09:35:46;10.25;;;7.20;;
21833;SDS011;11079;51.092;3.458;2024-02-14T09:38:13;10.70;;;7.05;;
21833;SDS011;11079;51.092;3.458;2024-02-14T09:40:40;11.73;;;8.05;;
21833;SDS011;11079;51.092;3.458;2024-02-14T09:43:08;11.70;;;8.05;;
21833;SDS011;11079;51.092;3.458;2024-02-14T09:48:13;10.63;;;6.95;;
21833;SDS011;11079;51.092;3.458;2024-02-14T09:50:53;11.70;;;7.57;;
21833;SDS011;11079;51.092;3.458;2024-02-14T09:53:40;12.70;;;6.57;;
21833;SDS011;11079;51.092;3.458;2024-02-14T09:56:10;11.40;;;7.47;;
21833;SDS011;11079;51.092;3.458;2024-02-14T09:58:41;12.90;;;7.43;;
21833;SDS011;11079;51.092;3.458;2024-02-14T10:01:14;12.98;;;7.10;;
21833;SDS011;11079;51.092;3.458;2024-02-14T10:03:40;10.30;;;7.07;;
21833;SDS011;11079;51.092;3.458;2024-02-14T10:06:05;10.40;;;7.30;;
21833;SDS011;11079;51.092;3.458;2024-02-14T10:08:32;12.00;;;7.97;;
21833;SDS011;11079;51.092;3.458;2024-02-14T10:10:58;10.18;;;6.90;;
21833;SDS011;11079;51.092;3.458;2024-02-14T10:13:29;11.52;;;7.35;;
21833;SDS011;11079;51.092;3.458;2024-02-14T10:15:56;11.98;;;7.10;;
21833;SDS011;11079;51.092;3.458;2024-02-14T10:18:22;16.08;;;8.05;;
21833;SDS011;11079;51.092;3.458;2024-02-14T10:20:54;10.75;;;6.57;;
21833;SDS011;11079;51.092;3.458;2024-02-14T10:23:21;13.55;;;6.90;;
21833;SDS011;11079;51.092;3.458;2024-02-14T10:25:49;12.07;;;7.45;;
21833;SDS011;11079;51.092;3.458;2024-02-14T10:28:18;10.20;;;6.85;;
21833;SDS011;11079;51.092;3.458;2024-02-14T10:30:46;12.13;;;6.88;;
21833;SDS011;11079;51.092;3.458;2024-02-14T10:33:15;9.98;;;6.75;;
21833;SDS011;11079;51.092;3.458;2024-02-14T10:35:41;9.50;;;6.60;;
21833;SDS011;11079;51.092;3.458;2024-02-14T10:38:07;9.82;;;6.93;;
21833;SDS011;11079;51.092;3.458;2024-02-14T10:40:34;8.40;;;6.40;;
21833;SDS011;11079;51.092;3.458;2024-02-14T10:43:01;8.93;;;6.25;;
21833;SDS011;11079;51.092;3.458;2024-02-14T10:45:27;8.27;;;6.22;;
21833;SDS011;11079;51.092;3.458;2024-02-14T10:47:53;9.75;;;6.75;;
21833;SDS011;11079;51.092;3.458;2024-02-14T10:50:24;9.02;;;6.50;;
21833;SDS011;11079;51.092;3.458;2024-02-14T10:52:53;8.52;;;6.15;;
21833;SDS011;11079;51.092;3.458;2024-02-14T10:55:22;8.27;;;6.10;;
21833;SDS011;11079;51.092;3.458;2024-02-14T10:57:51;8.68;;;6.35;;
21833;SDS011;11079;51.092;3.458;2024-02-14T11:00:19;6.63;;;5.40;;
21833;SDS011;11079;51.092;3.458;2024-02-14T11:02:45;8.05;;;5.90;;
21833;SDS011;11079;51.092;3.458;2024-02-14T11:05:14;9.38;;;6.32;;
21833;SDS011;11079;51.092;3.458;2024-02-14T11:07:44;9.15;;;6.32;;
21833;SDS011;11079;51.092;3.458;2024-02-14T11:10:13;11.15;;;6.35;;
21833;SDS011;11079;51.092;3.458;2024-02-14T11:12:40;9.52;;;6.25;;
21833;SDS011;11079;51.092;3.458;2024-02-14T11:15:16;7.43;;;5.53;;
21833;SDS011;11079;51.092;3.458;2024-02-14T11:17:46;8.65;;;6.43;;
21833;SDS011;11079;51.092;3.458;2024-02-14T11:22:50;8.60;;;5.35;;
21833;SDS011;11079;51.092;3.458;2024-02-14T11:25:37;13.88;;;5.78;;
21833;SDS011;11079;51.092;3.458;2024-02-14T11:28:14;9.48;;;6.07;;
21833;SDS011;11079;51.092;3.458;2024-02-14T11:30:46;9.43;;;5.40;;
21833;SDS011;11079;51.092;3.458;2024-02-14T11:35:43;7.82;;;5.85;;
21833;SDS011;11079;51.092;3.458;2024-02-14T11:38:11;10.15;;;5.88;;
21833;SDS011;11079;51.092;3.458;2024-02-14T11:40:46;12.55;;;6.38;;
21833;SDS011;11079;51.092;3.458;2024-02-14T11:43:22;8.25;;;5.43;;
21833;SDS011;11079;51.092;3.458;2024-02-14T11:45:51;12.35;;;6.22;;
21833;SDS011;11079;51.092;3.458;2024-02-14T11:48:19;9.15;;;5.78;;
21833;SDS011;11079;51.092;3.458;2024-02-14T11:50:51;9.52;;;5.78;;
21833;SDS011;11079;51.092;3.458;2024-02-14T11:53:18;11.25;;;5.72;;
21833;SDS011;11079;51.092;3.458;2024-02-14T11:55:53;7.95;;;4.90;;
21833;SDS011;11079;51.092;3.458;2024-02-14T11:58:20;11.82;;;6.13;;
21833;SDS011;11079;51.092;3.458;2024-02-14T12:00:46;10.00;;;5.72;;
21833;SDS011;11079;51.092;3.458;2024-02-14T12:03:23;9.73;;;5.32;;
21833;SDS011;11079;51.092;3.458;2024-02-14T12:05:54;8.95;;;6.20;;
21833;SDS011;11079;51.092;3.458;2024-02-14T12:08:40;7.68;;;5.72;;
21833;SDS011;11079;51.092;3.458;2024-02-14T12:11:08;9.85;;;5.55;;
21833;SDS011;11079;51.092;3.458;2024-02-14T12:13:33;6.47;;;4.90;;
21833;SDS011;11079;51.092;3.458;2024-02-14T12:16:23;9.10;;;5.35;;
21833;SDS011;11079;51.092;3.458;2024-02-14T12:19:34;8.45;;;5.43;;
21833;SDS011;11079;51.092;3.458;2024-02-14T12:21:41;9.93;;;5.35;;
21833;SDS011;11079;51.092;3.458;2024-02-14T12:24:11;8.82;;;5.20;;
21833;SDS011;11079;51.092;3.458;2024-02-14T12:26:42;6.95;;;4.55;;
21833;SDS011;11079;51.092;3.458;2024-02-14T12:29:11;9.85;;;4.78;;
21833;SDS011;11079;51.092;3.458;2024-02-14T12:31:44;8.85;;;4.50;;
21833;SDS011;11079;51.092;3.458;2024-02-14T12:34:10;9.60;;;5.05;;
21833;SDS011;11079;51.092;3.458;2024-02-14T12:36:38;9.00;;;4.53;;
21833;SDS011;11079;51.092;3.458;2024-02-14T12:39:04;9.40;;;4.30;;
21833;SDS011;11079;51.092;3.458;2024-02-14T12:41:34;5.75;;;4.20;;
21833;SDS011;11079;51.092;3.458;2024-02-14T12:44:04;6.28;;;4.00;;
21833;SDS011;11079;51.092;3.458;2024-02-14T12:46:31;9.27;;;3.72;;
21833;SDS011;11079;51.092;3.458;2024-02-14T12:48:57;6.38;;;4.10;;
21833;SDS011;11079;51.092;3.458;2024-02-14T12:51:26;6.20;;;4.18;;
21833;SDS011;11079;51.092;3.458;2024-02-14T12:53:53;9.13;;;3.75;;
21833;SDS011;11079;51.092;3.458;2024-02-14T12:56:19;5.45;;;4.00;;
21833;SDS011;11079;51.092;3.458;2024-02-14T12:58:45;7.03;;;3.85;;
21833;SDS011;11079;51.092;3.458;2024-02-14T13:01:12;4.40;;;3.63;;
21833;SDS011;11079;51.092;3.458;2024-02-14T13:03:39;7.40;;;3.80;;
21833;SDS011;11079;51.092;3.458;2024-02-14T13:06:05;4.57;;;3.75;;
21833;SDS011;11079;51.092;3.458;2024-02-14T13:08:30;9.07;;;4.47;;
21833;SDS011;11079;51.092;3.458;2024-02-14T13:10:57;6.53;;;3.92;;
21833;SDS011;11079;51.092;3.458;2024-02-14T13:13:30;5.90;;;4.47;;
21833;SDS011;11079;51.092;3.458;2024-02-14T13:15:56;5.88;;;3.90;;
21833;SDS011;11079;51.092;3.458;2024-02-14T13:18:21;7.95;;;5.00;;
21833;SDS011;11079;51.092;3.458;2024-02-14T13:20:47;7.38;;;4.55;;
21833;SDS011;11079;51.092;3.458;2024-02-14T13:23:16;7.55;;;4.07;;
21833;SDS011;11079;51.092;3.458;2024-02-14T13:25:41;7.90;;;4.38;;
21833;SDS011;11079;51.092;3.458;2024-02-14T13:28:08;8.23;;;5.38;;
21833;SDS011;11079;51.092;3.458;2024-02-14T13:30:34;5.95;;;3.90;;
21833;SDS011;11079;51.092;3.458;2024-02-14T13:32:59;7.05;;;4.43;;
21833;SDS011;11079;51.092;3.458;2024-02-14T13:35:25;11.50;;;5.20;;
21833;SDS011;11079;51.092;3.458;2024-02-14T13:38:11;7.03;;;4.60;;
21833;SDS011;11079;51.092;3.458;2024-02-14T13:40:37;9.10;;;4.90;;
21833;SDS011;11079;51.092;3.458;2024-02-14T13:43:02;7.18;;;4.60;;
21833;SDS011;11079;51.092;3.458;2024-02-14T13:45:32;9.02;;;4.78;;
21833;SDS011;11079;51.092;3.458;2024-02-14T13:48:07;8.60;;;5.25;;
21833;SDS011;11079;51.092;3.458;2024-02-14T13:50:34;10.15;;;6.07;;
21833;SDS011;11079;51.092;3.458;2024-02-14T13:53:00;7.45;;;5.47;;
21833;SDS011;11079;51.092;3.458;2024-02-14T13:55:26;8.95;;;5.10;;
21833;SDS011;11079;51.092;3.458;2024-02-14T13:57:51;10.82;;;5.15;;
21833;SDS011;11079;51.092;3.458;2024-02-14T14:00:17;8.75;;;5.10;;
21833;SDS011;11079;51.092;3.458;2024-02-14T14:02:42;11.07;;;4.72;;
21833;SDS011;11079;51.092;3.458;2024-02-14T14:05:09;6.50;;;3.88;;
21833;SDS011;11079;51.092;3.458;2024-02-14T14:07:38;8.90;;;4.95;;
21833;SDS011;11079;51.092;3.458;2024-02-14T14:10:05;8.57;;;3.83;;
21833;SDS011;11079;51.092;3.458;2024-02-14T14:12:32;12.88;;;4.70;;
21833;SDS011;11079;51.092;3.458;2024-02-14T14:14:58;9.05;;;4.35;;
21833;SDS011;11079;51.092;3.458;2024-02-14T14:17:24;9.15;;;4.95;;
21833;SDS011;11079;51.092;3.458;2024-02-14T14:19:50;10.48;;;4.40;;
21833;SDS011;11079;51.092;3.458;2024-02-14T14:22:16;7.88;;;4.15;;
21833;SDS011;11079;51.092;3.458;2024-02-14T14:24:41;9.15;;;4.43;;
21833;SDS011;11079;51.092;3.458;2024-02-14T14:27:10;9.43;;;4.40;;
21833;SDS011;11079;51.092;3.458;2024-02-14T14:29:39;9.65;;;5.25;;
21833;SDS011;11079;51.092;3.458;2024-02-14T14:32:06;12.55;;;5.00;;
21833;SDS011;11079;51.092;3.458;2024-02-14T14:34:33;9.18;;;5.30;;
21833;SDS011;11079;51.092;3.458;2024-02-14T14:36:59;14.30;;;6.30;;
21833;SDS011;11079;51.092;3.458;2024-02-14T14:39:26;7.45;;;4.50;;
21833;SDS011;11079;51.092;3.458;2024-02-14T14:41:52;8.05;;;4.57;;
21833;SDS011;11079;51.092;3.458;2024-02-14T14:44:23;10.23;;;4.50;;
21833;SDS011;11079;51.092;3.458;2024-02-14T14:46:52;9.98;;;4.55;;
21833;SDS011;11079;51.092;3.458;2024-02-14T14:49:18;6.95;;;4.00;;
21833;SDS011;11079;51.092;3.458;2024-02-14T14:51:44;8.40;;;3.83;;
21833;SDS011;11079;51.092;3.458;2024-02-14T14:54:09;9.25;;;5.40;;
21833;SDS011;11079;51.092;3.458;2024-02-14T14:56:35;7.25;;;4.40;;
21833;SDS011;11079;51.092;3.458;2024-02-14T14:59:01;10.88;;;4.30;;
21833;SDS011;11079;51.092;3.458;2024-02-14T15:01:31;10.07;;;4.38;;
21833;SDS011;11079;51.092;3.458;2024-02-14T15:04:01;7.50;;;4.47;;
21833;SDS011;11079;51.092;3.458;2024-02-14T15:06:27;10.77;;;5.05;;
21833;SDS011;11079;51.092;3.458;2024-02-14T15:08:53;6.90;;;3.65;;
21833;SDS011;11079;51.092;3.458;2024-02-14T15:11:20;7.75;;;4.00;;
21833;SDS011;11079;51.092;3.458;2024-02-14T15:13:46;7.85;;;3.95;;
21833;SDS011;11079;51.092;3.458;2024-02-14T15:16:12;9.52;;;3.85;;
21833;SDS011;11079;51.092;3.458;2024-02-14T15:18:38;7.82;;;4.10;;
21833;SDS011;11079;51.092;3.458;2024-02-14T15:21:05;8.43;;;4.07;;
21833;SDS011;11079;51.092;3.458;2024-02-14T15:23:32;9.05;;;4.07;;
21833;SDS011;11079;51.092;3.458;2024-02-14T15:25:58;8.20;;;4.63;;
21833;SDS011;11079;51.092;3.458;2024-02-14T15:28:31;9.63;;;3.92;;
21833;SDS011;11079;51.092;3.458;2024-02-14T15:30:59;9.52;;;4.90;;
21833;SDS011;11079;51.092;3.458;2024-02-14T15:33:43;5.57;;;3.92;;
21833;SDS011;11079;51.092;3.458;2024-02-14T15:36:09;6.35;;;3.72;;
21833;SDS011;11079;51.092;3.458;2024-02-14T15:38:40;7.93;;;4.03;;
21833;SDS011;11079;51.092;3.458;2024-02-14T15:41:07;6.28;;;3.05;;
21833;SDS011;11079;51.092;3.458;2024-02-14T15:43:34;9.05;;;4.03;;
21833;SDS011;11079;51.092;3.458;2024-02-14T15:46:00;8.43;;;4.50;;
21833;SDS011;11079;51.092;3.458;2024-02-14T15:48:27;10.73;;;4.57;;
21833;SDS011;11079;51.092;3.458;2024-02-14T15:50:56;7.15;;;4.65;;
21833;SDS011;11079;51.092;3.458;2024-02-14T15:53:23;8.45;;;4.50;;
21833;SDS011;11079;51.092;3.458;2024-02-14T15:55:51;15.88;;;4.40;;
21833;SDS011;11079;51.092;3.458;2024-02-14T15:58:17;8.88;;;3.70;;
21833;SDS011;11079;51.092;3.458;2024-02-14T16:00:43;14.32;;;3.38;;
21833;SDS011;11079;51.092;3.458;2024-02-14T16:03:09;5.70;;;3.25;;
21833;SDS011;11079;51.092;3.458;2024-02-14T16:05:37;8.52;;;3.85;;
21833;SDS011;11079;51.092;3.458;2024-02-14T16:08:05;11.90;;;3.33;;
21833;SDS011;11079;51.092;3.458;2024-02-14T16:10:31;6.10;;;3.05;;
21833;SDS011;11079;51.092;3.458;2024-02-14T16:12:57;10.52;;;3.55;;
21833;SDS011;11079;51.092;3.458;2024-02-14T16:15:26;9.73;;;3.42;;
21833;SDS011;11079;51.092;3.458;2024-02-14T16:17:51;14.07;;;4.25;;
21833;SDS011;11079;51.092;3.458;2024-02-14T16:20:18;8.80;;;4.50;;
21833;SDS011;11079;51.092;3.458;2024-02-14T16:22:44;8.25;;;3.42;;
21833;SDS011;11079;51.092;3.458;2024-02-14T16:25:10;8.15;;;3.50;;
21833;SDS011;11079;51.092;3.458;2024-02-14T16:27:36;6.43;;;2.90;;
21833;SDS011;11079;51.092;3.458;2024-02-14T16:30:04;7.40;;;3.30;;
21833;SDS011;11079;51.092;3.458;2024-02-14T16:32:34;10.32;;;3.80;;